createdAt,value
2022-12-18T00:00:30.323Z,25.69
2022-12-18T00:01:51.781Z,25.30
2022-12-18T00:04:33.981Z,28.34
2022-12-18T00:05:55.308Z,28.19
2022-12-18T00:07:16.577Z,27.12
2022-12-18T00:08:38.312Z,25.18
2022-12-18T00:09:59.942Z,22.94
2022-12-18T00:11:22.246Z,23.94
2022-12-18T00:12:44.325Z,23.89
2022-12-18T00:14:05.483Z,23.93
2022-12-18T00:15:30.609Z,24.44
2022-12-18T00:16:53.177Z,23.71
2022-12-18T00:18:18.956Z,23.84
2022-12-18T00:19:38.283Z,22.97
2022-12-18T00:21:00.840Z,23.86
2022-12-18T00:22:22.441Z,20.80
2022-12-18T00:23:45.374Z,23.31
2022-12-18T00:26:30.356Z,22.00
2022-12-18T00:27:51.754Z,21.88
2022-12-18T00:29:17.535Z,21.66
2022-12-18T00:30:39.956Z,23.48
2022-12-18T00:32:02.727Z,25.11
2022-12-18T00:33:24.118Z,21.36
2022-12-18T00:34:48.850Z,23.44
2022-12-18T00:36:13.415Z,21.37
2022-12-18T00:37:34.917Z,21.51
2022-12-18T00:38:58.397Z,19.46
2022-12-18T00:40:19.846Z,23.30
2022-12-18T00:41:40.927Z,22.14
2022-12-18T00:43:02.933Z,21.64
2022-12-18T00:44:25.077Z,21.44
2022-12-18T00:45:47.203Z,23.68
2022-12-18T00:47:08.539Z,22.48
2022-12-18T00:48:30.958Z,23.49
2022-12-18T00:49:52.309Z,23.16
2022-12-18T00:51:15.845Z,24.59
2022-12-18T00:52:37.257Z,22.26
2022-12-18T00:53:58.562Z,23.10
2022-12-18T00:55:21.019Z,22.87
2022-12-18T00:56:48.699Z,22.53
2022-12-18T00:58:06.584Z,21.16
2022-12-18T01:01:10.990Z,22.72
2022-12-18T01:02:35.082Z,22.55
2022-12-18T01:03:56.565Z,24.26
2022-12-18T01:05:20.469Z,21.84
2022-12-18T01:06:43.140Z,23.26
2022-12-18T01:08:04.965Z,25.84
2022-12-18T01:09:28.200Z,26.82
2022-12-18T01:10:50.895Z,25.28
2022-12-18T01:12:12.590Z,23.75
2022-12-18T01:13:33.981Z,27.17
2022-12-18T01:14:58.247Z,29.11
2022-12-18T01:16:27.926Z,22.48
2022-12-18T01:17:55.027Z,27.98
2022-12-18T01:19:34.173Z,27.47
2022-12-18T01:20:56.173Z,28.97
2022-12-18T01:22:18.256Z,29.19
2022-12-18T01:25:25.642Z,26.49
2022-12-18T01:26:47.857Z,24.85
2022-12-18T01:29:50.656Z,25.91
2022-12-18T01:31:17.702Z,27.71
2022-12-18T01:32:50.924Z,26.34
2022-12-18T01:34:15.878Z,29.99
2022-12-18T01:35:42.553Z,27.24
2022-12-18T01:39:00.284Z,29.02
2022-12-18T01:40:22.050Z,26.76
2022-12-18T01:41:43.419Z,26.82
2022-12-18T01:43:04.456Z,26.62
2022-12-18T01:44:52.030Z,28.53
2022-12-18T01:46:14.173Z,26.77
2022-12-18T01:47:41.460Z,24.09
2022-12-18T01:49:02.873Z,25.79
2022-12-18T01:50:26.972Z,29.09
2022-12-18T01:51:48.317Z,25.63
2022-12-18T01:54:25.146Z,28.76
2022-12-18T01:55:52.392Z,24.39
2022-12-18T01:57:13.785Z,25.81
2022-12-18T01:58:56.370Z,25.71
2022-12-18T02:00:19.175Z,25.38
2022-12-18T02:03:01.980Z,24.27
2022-12-18T02:04:24.902Z,28.49
2022-12-18T02:05:50.091Z,26.52
2022-12-18T02:07:27.147Z,25.91
2022-12-18T02:09:07.388Z,27.03
2022-12-18T02:12:21.249Z,26.40
2022-12-18T02:14:03.107Z,26.81
2022-12-18T02:17:07.614Z,28.72
2022-12-18T02:18:32.944Z,23.48
2022-12-18T02:20:12.749Z,27.66
2022-12-18T02:21:43.933Z,25.62
2022-12-18T02:23:12.318Z,27.68
2022-12-18T02:24:52.349Z,26.66
2022-12-18T02:26:27.940Z,24.58
2022-12-18T02:27:52.253Z,22.50
2022-12-18T02:29:17.869Z,23.89
2022-12-18T02:30:39.782Z,24.90
2022-12-18T02:33:27.889Z,23.22
2022-12-18T02:34:50.601Z,23.21
2022-12-18T02:36:12.836Z,21.91
2022-12-18T02:37:34.514Z,23.26
2022-12-18T02:38:57.043Z,21.49
2022-12-18T02:40:20.334Z,22.62
2022-12-18T02:41:42.232Z,25.22
2022-12-18T02:43:12.030Z,23.53
2022-12-18T02:44:33.116Z,21.78
2022-12-18T02:47:11.544Z,22.78
2022-12-18T02:48:33.541Z,24.06
2022-12-18T02:50:21.123Z,22.90
2022-12-18T02:51:56.511Z,23.39
2022-12-18T02:53:30.165Z,22.70
2022-12-18T02:55:14.624Z,22.07
2022-12-18T02:56:40.495Z,20.56
2022-12-18T02:59:41.508Z,21.93
2022-12-18T03:02:34.102Z,18.81
2022-12-18T03:03:56.878Z,23.62
2022-12-18T03:05:38.163Z,23.83
2022-12-18T03:07:01.994Z,23.89
2022-12-18T03:08:30.686Z,23.74
2022-12-18T03:09:51.957Z,22.38
2022-12-18T03:11:13.935Z,23.70
2022-12-18T03:12:36.362Z,25.01
2022-12-18T03:13:57.776Z,21.90
2022-12-18T03:15:27.763Z,23.65
2022-12-18T03:16:51.251Z,23.49
2022-12-18T03:18:27.732Z,22.22
2022-12-18T03:19:49.059Z,25.66
2022-12-18T03:21:10.193Z,24.54
2022-12-18T03:22:32.832Z,23.34
2022-12-18T03:23:54.195Z,19.41
2022-12-18T03:25:15.794Z,24.49
2022-12-18T03:26:39.152Z,21.52
2022-12-18T03:28:01.086Z,20.73
2022-12-18T03:29:34.315Z,24.11
2022-12-18T03:32:29.767Z,21.96
2022-12-18T03:33:56.279Z,23.18
2022-12-18T03:35:20.918Z,23.64
2022-12-18T03:36:42.906Z,22.24
2022-12-18T03:38:03.962Z,24.12
2022-12-18T03:39:25.468Z,23.67
2022-12-18T03:41:05.795Z,20.51
2022-12-18T03:42:48.808Z,23.42
2022-12-18T03:44:22.773Z,22.97
2022-12-18T03:45:50.445Z,25.27
2022-12-18T03:47:17.168Z,23.03
2022-12-18T03:48:41.257Z,24.93
2022-12-18T03:50:13.013Z,27.16
2022-12-18T03:51:52.718Z,24.24
2022-12-18T03:53:29.982Z,24.86
2022-12-18T03:54:51.114Z,28.02
2022-12-18T03:56:12.755Z,25.64
2022-12-18T03:58:43.837Z,23.62
2022-12-18T04:00:08.684Z,26.33
2022-12-18T04:01:34.522Z,25.08
2022-12-18T04:02:56.169Z,24.49
2022-12-18T04:04:18.137Z,25.83
2022-12-18T04:05:39.945Z,29.07
2022-12-18T04:07:01.755Z,30.95
2022-12-18T04:08:22.992Z,28.37
2022-12-18T04:09:43.983Z,25.32
2022-12-18T04:11:05.315Z,26.29
2022-12-18T04:12:26.641Z,27.09
2022-12-18T04:13:47.686Z,25.21
2022-12-18T04:15:09.023Z,25.72
2022-12-18T04:16:30.283Z,25.12
2022-12-18T04:17:51.563Z,26.75
2022-12-18T04:19:13.016Z,25.26
2022-12-18T04:20:34.339Z,27.18
2022-12-18T04:21:55.598Z,23.86
2022-12-18T04:23:17.142Z,26.43
2022-12-18T04:24:38.601Z,25.72
2022-12-18T04:26:00.286Z,27.12
2022-12-18T04:27:22.024Z,22.39
2022-12-18T04:28:43.261Z,23.90
2022-12-18T04:30:05.160Z,25.36
2022-12-18T04:31:26.347Z,25.14
2022-12-18T04:32:52.055Z,25.27
2022-12-18T04:35:31.651Z,23.53
2022-12-18T04:36:53.175Z,25.45
2022-12-18T04:38:14.355Z,24.24
2022-12-18T04:39:35.491Z,26.94
2022-12-18T04:40:56.614Z,22.29
2022-12-18T04:42:17.925Z,22.47
2022-12-18T04:43:39.767Z,23.04
2022-12-18T04:45:01.210Z,20.53
2022-12-18T04:46:22.306Z,21.91
2022-12-18T04:47:43.518Z,22.63
2022-12-18T04:49:05.110Z,22.02
2022-12-18T04:50:26.342Z,21.59
2022-12-18T04:51:47.506Z,24.81
2022-12-18T04:53:08.801Z,22.08
2022-12-18T04:54:31.527Z,23.61
2022-12-18T04:56:10.372Z,22.19
2022-12-18T04:57:31.633Z,21.28
2022-12-18T04:58:52.862Z,22.89
2022-12-18T05:00:15.551Z,18.89
2022-12-18T05:01:36.947Z,23.18
2022-12-18T05:02:58.532Z,19.86
2022-12-18T05:04:19.807Z,22.03
2022-12-18T05:05:41.410Z,17.97
2022-12-18T05:07:02.657Z,18.04
2022-12-18T05:08:23.888Z,19.04
2022-12-18T05:09:45.170Z,20.56
2022-12-18T05:11:08.996Z,21.14
2022-12-18T05:12:31.423Z,18.65
2022-12-18T05:13:52.810Z,19.89
2022-12-18T05:15:14.111Z,19.57
2022-12-18T05:16:35.532Z,16.50
2022-12-18T05:19:07.076Z,18.37
2022-12-18T05:20:28.709Z,18.61
2022-12-18T05:21:50.420Z,18.92
2022-12-18T05:23:12.233Z,19.05
2022-12-18T05:24:33.289Z,15.56
2022-12-18T05:27:14.892Z,15.56
2022-12-18T05:28:36.718Z,16.00
2022-12-18T05:29:58.223Z,18.61
2022-12-18T05:31:19.647Z,15.50
2022-12-18T05:32:41.065Z,16.19
2022-12-18T05:34:02.715Z,16.76
2022-12-18T05:35:24.061Z,13.99
2022-12-18T05:36:45.556Z,13.67
2022-12-18T05:38:06.680Z,12.93
2022-12-18T05:39:27.887Z,12.97
2022-12-18T05:40:50.367Z,13.86
2022-12-18T05:42:11.799Z,13.44
2022-12-18T05:43:34.471Z,12.24
2022-12-18T05:44:56.143Z,13.10
2022-12-18T05:46:18.065Z,13.67
2022-12-18T05:47:39.690Z,15.10
2022-12-18T05:49:00.923Z,12.74
2022-12-18T05:50:22.314Z,14.15
2022-12-18T05:51:43.818Z,15.18
2022-12-18T05:53:05.239Z,15.54
2022-12-18T05:54:29.619Z,15.29
2022-12-18T05:55:50.869Z,15.29
2022-12-18T05:57:11.971Z,14.58
2022-12-18T05:58:33.518Z,16.25
2022-12-18T05:59:54.755Z,15.48
2022-12-18T06:01:17.793Z,14.82
2022-12-18T06:02:39.001Z,14.67
2022-12-18T06:04:00.435Z,16.88
2022-12-18T06:05:21.999Z,16.16
2022-12-18T06:06:43.876Z,14.33
2022-12-18T06:08:05.650Z,14.32
2022-12-18T06:09:27.746Z,17.66
2022-12-18T06:10:52.004Z,15.83
2022-12-18T06:12:13.291Z,16.12
2022-12-18T06:13:34.696Z,15.21
2022-12-18T06:14:56.042Z,17.36
2022-12-18T06:16:17.323Z,14.42
2022-12-18T06:17:39.204Z,18.85
2022-12-18T06:19:01.542Z,20.82
2022-12-18T06:20:22.917Z,20.84
2022-12-18T06:21:44.195Z,17.23
2022-12-18T06:23:05.924Z,17.99
2022-12-18T06:24:28.312Z,21.41
2022-12-18T06:25:49.346Z,18.06
2022-12-18T06:27:10.533Z,21.63
2022-12-18T06:28:32.031Z,22.42
2022-12-18T06:29:53.766Z,20.02
2022-12-18T06:31:14.886Z,21.27
2022-12-18T06:32:36.077Z,20.38
2022-12-18T06:33:57.195Z,20.52
2022-12-18T06:35:18.836Z,20.04
2022-12-18T06:36:42.044Z,20.47
2022-12-18T06:38:03.654Z,21.32
2022-12-18T06:39:25.211Z,19.55
2022-12-18T06:40:48.217Z,20.01
2022-12-18T06:42:09.548Z,19.16
2022-12-18T06:43:31.112Z,19.61
2022-12-18T06:44:52.563Z,22.36
2022-12-18T06:46:14.623Z,19.01
2022-12-18T06:47:35.984Z,21.37
2022-12-18T06:48:57.456Z,22.86
2022-12-18T06:50:19.138Z,20.17
2022-12-18T06:51:40.484Z,21.64
2022-12-18T06:53:02.360Z,21.29
2022-12-18T06:54:23.795Z,22.74
2022-12-18T06:55:45.235Z,22.28
2022-12-18T06:57:06.348Z,21.39
2022-12-18T06:58:28.327Z,21.34
2022-12-18T06:59:49.502Z,21.36
2022-12-18T07:01:11.239Z,23.22
2022-12-18T07:02:32.734Z,22.66
2022-12-18T07:03:54.720Z,24.94
2022-12-18T07:05:16.376Z,23.98
2022-12-18T07:06:38.605Z,23.74
2022-12-18T07:07:59.933Z,23.56
2022-12-18T07:09:21.322Z,22.52
2022-12-18T07:10:46.980Z,23.57
2022-12-18T07:12:06.685Z,20.94
2022-12-18T07:13:27.685Z,19.02
2022-12-18T07:14:49.127Z,23.20
2022-12-18T07:16:22.364Z,24.14
2022-12-18T07:17:38.962Z,22.46
2022-12-18T07:19:00.403Z,25.21
2022-12-18T07:20:21.878Z,23.76
2022-12-18T07:21:43.204Z,22.66
2022-12-18T07:23:04.948Z,22.10
2022-12-18T07:24:25.911Z,25.02
2022-12-18T07:25:47.416Z,26.16
2022-12-18T07:27:08.697Z,27.72
2022-12-18T07:28:31.710Z,26.65
2022-12-18T07:29:52.929Z,24.54
2022-12-18T07:31:16.238Z,22.36
2022-12-18T07:32:37.846Z,25.05
2022-12-18T07:34:00.983Z,24.74
2022-12-18T07:35:24.982Z,25.67
2022-12-18T07:36:44.937Z,24.59
2022-12-18T07:38:06.217Z,24.09
2022-12-18T07:39:27.642Z,27.56
2022-12-18T07:40:49.227Z,24.61
2022-12-18T07:42:10.588Z,25.11
2022-12-18T07:43:33.978Z,25.88
2022-12-18T07:44:55.238Z,23.39
2022-12-18T07:46:17.045Z,25.17
2022-12-18T07:47:38.176Z,30.02
2022-12-18T07:48:59.647Z,24.50
2022-12-18T07:50:21.205Z,22.53
2022-12-18T07:51:42.404Z,22.03
2022-12-18T07:53:05.003Z,23.19
2022-12-18T07:54:26.102Z,24.29
2022-12-18T07:56:18.426Z,25.13
2022-12-18T07:57:33.733Z,22.80
2022-12-18T07:58:33.580Z,22.69
2022-12-18T07:59:55.641Z,24.79
2022-12-18T08:01:16.827Z,24.56
2022-12-18T08:04:01.488Z,25.13
2022-12-18T08:05:22.940Z,22.81
2022-12-18T08:18:24.032Z,14.69
2022-12-18T08:19:45.857Z,18.51
2022-12-18T08:22:29.524Z,20.70
2022-12-18T08:23:52.382Z,18.47
2022-12-18T08:25:13.759Z,20.44
2022-12-18T08:26:35.407Z,18.95
2022-12-18T08:27:56.824Z,19.93
2022-12-18T08:29:21.574Z,16.21
2022-12-18T08:30:41.578Z,20.38
2022-12-18T08:32:03.240Z,18.67
2022-12-18T08:33:24.583Z,20.28
2022-12-18T08:34:46.069Z,18.58
2022-12-18T08:36:09.451Z,17.99
2022-12-18T08:37:30.986Z,16.45
2022-12-18T08:38:52.472Z,19.52
2022-12-18T08:40:14.218Z,17.04
2022-12-18T08:41:35.602Z,18.11
2022-12-18T08:43:16.351Z,16.35
2022-12-18T08:44:37.643Z,16.87
2022-12-18T08:45:59.045Z,16.95
2022-12-18T08:47:20.927Z,14.72
2022-12-18T08:48:43.010Z,16.15
2022-12-18T08:50:05.136Z,16.19
2022-12-18T08:51:26.417Z,18.08
2022-12-18T08:52:47.841Z,16.63
2022-12-18T08:54:11.904Z,15.23
2022-12-18T08:55:34.213Z,15.88
2022-12-18T08:56:56.674Z,16.26
2022-12-18T08:58:17.993Z,18.31
2022-12-18T08:59:39.338Z,17.80
2022-12-18T09:01:04.533Z,17.02
2022-12-18T09:02:27.096Z,14.43
2022-12-18T09:03:49.344Z,17.22
2022-12-18T09:05:10.445Z,12.43
2022-12-18T09:06:33.105Z,14.51
2022-12-18T09:07:54.247Z,16.34
2022-12-18T09:09:15.731Z,15.51
2022-12-18T09:10:47.690Z,19.59
2022-12-18T09:12:08.962Z,17.03
2022-12-18T09:13:30.471Z,15.39
2022-12-18T09:14:52.014Z,15.51
2022-12-18T09:16:13.825Z,13.62
2022-12-18T09:17:35.225Z,13.27
2022-12-18T09:18:58.273Z,12.32
2022-12-18T09:20:19.977Z,12.53
2022-12-18T09:21:47.767Z,14.98
2022-12-18T09:23:06.720Z,14.93
2022-12-18T09:24:28.232Z,13.81
2022-12-18T09:25:49.646Z,14.71
2022-12-18T09:27:11.510Z,13.54
2022-12-18T09:28:33.096Z,13.53
2022-12-18T09:29:54.195Z,14.56
2022-12-18T09:31:15.893Z,15.53
2022-12-18T09:32:37.353Z,14.21
2022-12-18T09:33:58.535Z,15.08
2022-12-18T09:35:19.990Z,15.48
2022-12-18T09:36:41.594Z,13.58
2022-12-18T09:38:03.096Z,15.62
2022-12-18T09:39:28.045Z,14.22
2022-12-18T09:40:51.554Z,15.42
2022-12-18T09:42:19.124Z,16.03
2022-12-18T09:44:54.042Z,17.24
2022-12-18T09:47:31.353Z,15.34
2022-12-18T09:48:53.146Z,16.23
2022-12-18T09:50:32.945Z,16.13
2022-12-18T09:52:02.937Z,14.12
2022-12-18T09:53:26.753Z,15.14
2022-12-18T09:56:16.944Z,13.97
2022-12-18T09:57:41.595Z,15.26
2022-12-18T09:59:03.587Z,15.23
2022-12-18T10:00:25.984Z,14.90
2022-12-18T10:01:48.842Z,13.99
2022-12-18T10:03:13.866Z,14.43
2022-12-18T10:04:35.173Z,14.62
2022-12-18T10:06:21.193Z,16.07
2022-12-18T10:07:52.214Z,13.70
2022-12-18T10:09:35.121Z,17.21
2022-12-18T10:10:59.968Z,15.70
2022-12-18T10:12:24.779Z,16.31
2022-12-18T10:13:49.402Z,17.23
2022-12-18T10:15:29.447Z,14.75
2022-12-18T10:17:03.646Z,15.99
2022-12-18T10:18:45.151Z,16.59
2022-12-18T10:21:55.533Z,13.39
2022-12-18T10:23:23.623Z,15.45
2022-12-18T10:24:49.058Z,16.68
2022-12-18T10:26:11.554Z,17.56
2022-12-18T10:27:32.695Z,15.71
2022-12-18T10:28:54.715Z,13.29
2022-12-18T10:30:18.109Z,19.07
2022-12-18T10:31:41.365Z,17.05
2022-12-18T10:33:03.122Z,17.73
2022-12-18T10:34:24.246Z,17.31
2022-12-18T10:35:45.693Z,15.67
2022-12-18T10:37:07.154Z,18.28
2022-12-18T10:38:29.288Z,19.25
2022-12-18T10:41:29.553Z,15.73
2022-12-18T10:43:14.008Z,15.42
2022-12-18T10:46:11.578Z,16.82
2022-12-18T10:47:34.457Z,18.87
2022-12-18T10:48:56.344Z,12.92
2022-12-18T10:51:01.856Z,18.68
2022-12-18T10:52:18.685Z,14.94
2022-12-18T10:53:40.849Z,18.13
2022-12-18T10:55:03.435Z,14.48
2022-12-18T10:56:25.981Z,16.64
2022-12-18T10:57:46.949Z,15.13
2022-12-18T10:59:10.002Z,17.61
2022-12-18T11:00:31.209Z,16.99
2022-12-18T11:01:58.683Z,18.15
2022-12-18T11:04:52.281Z,16.24
2022-12-18T11:06:18.990Z,18.33
2022-12-18T11:09:31.254Z,18.23
2022-12-18T11:10:52.337Z,15.53
2022-12-18T11:12:20.294Z,16.74
2022-12-18T11:13:41.239Z,15.72
2022-12-18T11:15:02.320Z,16.49
2022-12-18T11:16:24.066Z,16.76
2022-12-18T11:17:45.443Z,15.92
2022-12-18T11:20:39.698Z,21.05
2022-12-18T11:22:02.128Z,16.98
2022-12-18T11:23:23.710Z,15.48
2022-12-18T11:25:22.874Z,19.06
2022-12-18T11:26:16.591Z,17.16
2022-12-18T11:27:38.616Z,18.88
2022-12-18T11:29:10.508Z,18.86
2022-12-18T11:31:49.985Z,15.44
2022-12-18T11:33:14.583Z,16.37
2022-12-18T11:34:42.765Z,15.74
2022-12-18T11:36:04.826Z,17.26
2022-12-18T11:37:26.148Z,17.11
2022-12-18T11:38:47.633Z,17.96
2022-12-18T11:41:46.531Z,16.83
2022-12-18T11:43:32.408Z,15.92
2022-12-18T11:46:21.468Z,14.83
2022-12-18T11:48:34.832Z,15.06
2022-12-18T11:52:41.603Z,17.69
2022-12-18T11:54:06.821Z,15.35
2022-12-18T11:55:43.806Z,13.78
2022-12-18T11:57:24.072Z,15.56
2022-12-18T11:58:52.025Z,16.14
2022-12-18T12:00:18.652Z,13.47
2022-12-18T12:01:44.679Z,16.93
2022-12-18T12:03:19.175Z,14.83
2022-12-18T12:05:03.577Z,15.62
2022-12-18T12:09:27.415Z,17.21
2022-12-18T12:10:59.502Z,16.35
2022-12-18T12:12:45.226Z,16.30
2022-12-18T12:14:23.516Z,15.40
2022-12-18T12:16:09.483Z,17.10
2022-12-18T12:19:01.017Z,16.10
2022-12-18T12:20:35.939Z,15.82
2022-12-18T12:22:18.783Z,17.82
2022-12-18T12:23:59.065Z,19.24
2022-12-18T12:25:41.785Z,15.06
2022-12-18T12:28:57.891Z,17.03
2022-12-18T12:30:25.215Z,16.83
2022-12-18T12:32:06.837Z,15.30
2022-12-18T12:33:46.127Z,15.15
2022-12-18T12:35:36.811Z,14.10
2022-12-18T12:37:14.046Z,17.17
2022-12-18T12:39:51.052Z,14.62
2022-12-18T12:41:14.469Z,18.02
2022-12-18T12:44:07.161Z,15.24
2022-12-18T12:45:35.329Z,19.31
2022-12-18T12:46:59.902Z,17.53
2022-12-18T12:48:40.798Z,18.35
2022-12-18T12:50:04.510Z,15.66
2022-12-18T12:51:29.604Z,18.34
2022-12-18T12:52:53.091Z,16.41
2022-12-18T12:54:21.956Z,14.37
2022-12-18T12:55:43.682Z,16.46
2022-12-18T12:57:10.654Z,18.82
2022-12-18T12:58:38.924Z,15.98
2022-12-18T13:00:15.302Z,18.63
2022-12-18T13:01:54.008Z,18.32
2022-12-18T13:03:34.176Z,16.91
2022-12-18T13:05:26.830Z,19.38
2022-12-18T13:07:03.710Z,16.34
2022-12-18T13:08:31.134Z,16.72
2022-12-18T13:10:19.164Z,20.53
2022-12-18T13:11:41.657Z,16.96
2022-12-18T13:13:17.103Z,16.77
2022-12-18T13:14:39.136Z,17.48
2022-12-18T13:17:28.735Z,20.04
2022-12-18T13:18:51.273Z,16.04
2022-12-18T13:20:15.601Z,17.61
2022-12-18T13:21:38.243Z,16.37
2022-12-18T13:22:59.718Z,19.13
2022-12-18T13:24:28.988Z,16.59
2022-12-18T13:25:51.288Z,17.66
2022-12-18T13:27:45.116Z,17.24
2022-12-18T13:29:06.175Z,17.73
2022-12-18T13:30:37.887Z,14.82
2022-12-18T13:31:59.703Z,14.76
2022-12-18T13:33:30.545Z,13.70
2022-12-18T13:35:24.261Z,13.86
2022-12-18T13:36:46.186Z,13.91
2022-12-18T13:38:21.862Z,15.18
2022-12-18T13:39:43.043Z,14.97
2022-12-18T13:41:06.783Z,15.41
2022-12-18T13:42:40.722Z,13.79
2022-12-18T13:44:28.526Z,13.54
2022-12-18T13:46:07.073Z,14.34
2022-12-18T13:47:34.006Z,15.89
2022-12-18T13:48:58.981Z,13.48
2022-12-18T13:50:23.649Z,14.00
2022-12-18T13:51:50.517Z,16.18
2022-12-18T13:53:24.052Z,14.28
2022-12-18T13:56:03.592Z,14.04
2022-12-18T13:58:40.077Z,15.79
2022-12-18T14:00:24.168Z,12.93
2022-12-18T14:01:48.211Z,13.63
2022-12-18T14:03:26.509Z,14.83
2022-12-18T14:04:48.625Z,14.01
2022-12-18T14:06:11.767Z,15.05
2022-12-18T14:07:34.645Z,13.85
2022-12-18T14:08:55.985Z,21.69
2022-12-18T14:11:40.720Z,14.86
2022-12-18T14:13:10.205Z,12.62
2022-12-18T14:14:33.779Z,13.97
2022-12-18T14:17:15.889Z,13.48
2022-12-18T14:20:02.437Z,13.98
2022-12-18T14:21:26.353Z,14.83
2022-12-18T14:22:48.542Z,15.74
2022-12-18T14:24:16.715Z,14.84
2022-12-18T14:25:39.189Z,14.22
2022-12-18T14:27:04.060Z,14.51
2022-12-18T14:28:26.056Z,13.17
2022-12-18T14:29:47.453Z,12.82
2022-12-18T14:32:31.686Z,13.16
2022-12-18T14:33:53.203Z,14.12
2022-12-18T14:35:15.443Z,12.13
2022-12-18T14:36:36.645Z,12.29
2022-12-18T14:38:19.674Z,13.04
2022-12-18T14:39:41.001Z,13.85
2022-12-18T14:41:08.314Z,14.00
2022-12-18T14:42:31.266Z,14.94
2022-12-18T14:45:41.663Z,15.63
2022-12-18T14:47:00.259Z,17.44
2022-12-18T14:48:24.385Z,17.73
2022-12-18T14:49:45.646Z,14.68
2022-12-18T14:51:13.603Z,15.33
2022-12-18T14:52:35.037Z,16.59
2022-12-18T14:53:58.117Z,16.49
2022-12-18T14:57:56.764Z,15.48
2022-12-18T14:59:24.566Z,14.37
2022-12-18T15:00:44.627Z,12.37
2022-12-18T15:02:12.804Z,12.29
2022-12-18T15:03:34.518Z,13.57
2022-12-18T15:05:08.459Z,13.62
2022-12-18T15:06:30.108Z,13.73
2022-12-18T15:07:52.409Z,15.16
2022-12-18T15:09:22.479Z,14.12
2022-12-18T15:10:47.274Z,11.98
2022-12-18T15:12:26.573Z,15.63
2022-12-18T15:13:47.902Z,13.73
2022-12-18T15:15:35.520Z,12.77
2022-12-18T15:16:57.584Z,15.63
2022-12-18T15:18:20.035Z,15.02
2022-12-18T15:19:43.173Z,12.79
2022-12-18T15:21:11.708Z,14.41
2022-12-18T15:23:53.205Z,12.91
2022-12-18T15:26:38.746Z,14.63
2022-12-18T15:28:00.480Z,12.74
2022-12-18T15:29:22.084Z,14.66
2022-12-18T15:31:04.174Z,14.09
2022-12-18T15:32:25.799Z,12.79
2022-12-18T15:33:56.791Z,14.56
2022-12-18T15:35:23.850Z,13.67
2022-12-18T15:36:45.343Z,14.57
2022-12-18T15:38:07.095Z,14.37
2022-12-18T15:39:28.798Z,14.73
2022-12-18T15:40:50.400Z,17.47
2022-12-18T15:42:11.511Z,17.01
2022-12-18T15:43:32.804Z,17.21
2022-12-18T15:44:55.846Z,17.93
2022-12-18T15:47:33.114Z,11.57
2022-12-18T15:49:01.169Z,11.72
2022-12-18T15:50:18.798Z,15.75
2022-12-18T15:51:41.058Z,15.92
2022-12-18T15:53:02.131Z,15.04
2022-12-18T15:54:24.135Z,10.41
2022-12-18T15:55:45.634Z,16.00
2022-12-18T15:57:09.708Z,15.88
2022-12-18T15:58:31.068Z,18.49
2022-12-18T15:59:55.869Z,17.57
2022-12-18T16:01:17.264Z,16.46
2022-12-18T16:02:38.986Z,15.73
2022-12-18T16:04:00.604Z,15.26
2022-12-18T16:05:23.001Z,17.12
2022-12-18T16:07:13.141Z,15.01
2022-12-18T16:08:07.481Z,17.83
2022-12-18T16:09:29.249Z,16.98
2022-12-18T16:10:50.899Z,16.16
2022-12-18T16:12:19.962Z,16.25
2022-12-18T16:13:41.416Z,17.86
2022-12-18T16:15:04.069Z,18.93
2022-12-18T16:16:25.754Z,14.81
2022-12-18T16:17:48.961Z,17.16
2022-12-18T16:19:10.532Z,17.56
2022-12-18T16:20:31.926Z,17.25
2022-12-18T16:21:55.306Z,15.23
2022-12-18T16:23:16.899Z,18.22
2022-12-18T16:24:38.225Z,20.39
2022-12-18T16:25:59.744Z,21.42
2022-12-18T16:27:21.444Z,21.09
2022-12-18T16:28:48.231Z,20.23
2022-12-18T16:31:28.888Z,16.11
2022-12-18T16:32:51.419Z,15.91
2022-12-18T16:34:16.577Z,15.70
2022-12-18T16:35:38.121Z,16.79
2022-12-18T16:37:05.192Z,18.16
2022-12-18T16:38:23.857Z,17.92
2022-12-18T16:39:46.836Z,14.60
2022-12-18T16:41:17.354Z,17.84
2022-12-18T16:42:39.982Z,16.02
2022-12-18T16:44:01.482Z,11.23
2022-12-18T16:45:22.967Z,16.76
2022-12-18T16:46:45.112Z,19.70
2022-12-18T16:48:06.864Z,16.78
2022-12-18T16:49:28.310Z,15.59
2022-12-18T16:50:49.615Z,16.88
2022-12-18T16:52:10.880Z,15.42
2022-12-18T16:53:32.689Z,14.34
2022-12-18T16:54:54.247Z,17.13
2022-12-18T16:56:15.498Z,14.82
2022-12-18T16:57:36.576Z,16.49
2022-12-18T16:58:59.389Z,20.48
2022-12-18T17:00:21.340Z,19.74
2022-12-18T17:01:42.649Z,19.09
2022-12-18T17:03:04.511Z,18.75
2022-12-18T17:04:26.294Z,16.32
2022-12-18T17:05:52.906Z,17.63
2022-12-18T17:08:31.662Z,15.20
2022-12-18T17:09:53.223Z,15.19
2022-12-18T17:11:14.614Z,15.14
2022-12-18T17:12:37.840Z,15.47
2022-12-18T17:13:59.146Z,18.28
2022-12-18T17:15:21.579Z,14.69
2022-12-18T17:16:44.058Z,18.05
2022-12-18T17:18:06.611Z,17.24
2022-12-18T17:19:28.114Z,15.56
2022-12-18T17:20:50.505Z,16.82
2022-12-18T17:22:12.038Z,15.45
2022-12-18T17:23:33.389Z,16.30
2022-12-18T17:24:54.710Z,15.62
2022-12-18T17:26:16.621Z,14.90
2022-12-18T17:27:39.809Z,18.29
2022-12-18T17:29:01.560Z,18.67
2022-12-18T17:30:23.023Z,15.87
2022-12-18T17:31:44.429Z,16.94
2022-12-18T17:33:05.969Z,17.42
2022-12-18T17:34:27.719Z,17.69
2022-12-18T17:35:49.520Z,16.23
2022-12-18T17:37:10.661Z,20.37
2022-12-18T17:38:31.882Z,18.78
2022-12-18T17:39:53.780Z,19.03
2022-12-18T17:41:15.454Z,19.26
2022-12-18T17:42:36.847Z,19.13
2022-12-18T17:45:10.885Z,16.81
2022-12-18T17:46:33.124Z,20.66
2022-12-18T17:47:59.742Z,17.34
2022-12-18T17:49:17.514Z,16.76
2022-12-18T17:50:40.358Z,17.71
2022-12-18T17:52:01.624Z,17.83
2022-12-18T17:53:24.188Z,19.65
2022-12-18T17:54:45.299Z,19.58
2022-12-18T17:56:07.577Z,23.77
2022-12-18T17:57:29.378Z,21.52
2022-12-18T17:58:50.493Z,21.11
2022-12-18T18:00:13.711Z,26.01
2022-12-18T18:02:58.153Z,21.48
2022-12-18T18:04:19.763Z,19.47
2022-12-18T18:05:41.188Z,19.86
2022-12-18T18:07:02.711Z,18.68
2022-12-18T18:08:24.897Z,17.50
2022-12-18T18:09:46.431Z,12.69
2022-12-18T18:11:10.714Z,17.67
2022-12-18T18:12:32.594Z,18.19
2022-12-18T18:13:54.175Z,18.42
2022-12-18T18:15:15.767Z,22.06
2022-12-18T18:16:42.073Z,27.40
2022-12-18T18:18:03.531Z,25.67
2022-12-18T18:19:24.932Z,23.92
2022-12-18T18:20:46.804Z,25.54
2022-12-18T18:22:07.958Z,23.67
2022-12-18T18:23:29.468Z,25.68
2022-12-18T18:24:51.017Z,24.17
2022-12-18T18:26:12.311Z,24.02
2022-12-18T18:27:38.359Z,26.03
2022-12-18T18:30:11.537Z,25.96
2022-12-18T18:31:33.770Z,24.53
2022-12-18T18:32:57.057Z,21.95
2022-12-18T18:34:23.410Z,23.23
2022-12-18T18:35:53.845Z,22.00
2022-12-18T18:38:32.142Z,18.14
2022-12-18T18:39:53.574Z,20.27
2022-12-18T18:41:14.984Z,18.88
2022-12-18T18:42:38.139Z,22.78
2022-12-18T18:45:20.541Z,19.88
2022-12-18T18:46:41.962Z,20.28
2022-12-18T18:48:03.600Z,20.24
2022-12-18T18:49:25.424Z,21.13
2022-12-18T18:52:10.844Z,19.74
2022-12-18T18:53:36.403Z,21.82
2022-12-18T18:55:12.792Z,18.60
2022-12-18T18:57:44.796Z,16.88
2022-12-18T18:59:06.601Z,16.74
2022-12-18T19:00:28.175Z,17.17
2022-12-18T19:01:49.853Z,15.65
2022-12-18T19:03:11.044Z,17.67
2022-12-18T19:04:32.975Z,16.32
2022-12-18T19:05:55.117Z,17.55
2022-12-18T19:07:29.342Z,18.43
2022-12-18T19:08:41.075Z,16.82
2022-12-18T19:10:04.808Z,19.03
2022-12-18T19:11:31.708Z,15.85
2022-12-18T19:12:51.575Z,16.10
2022-12-18T19:14:13.356Z,18.68
2022-12-18T19:16:52.679Z,19.04
2022-12-18T19:18:13.797Z,18.66
2022-12-18T19:19:35.299Z,18.88
2022-12-18T19:21:00.467Z,17.65
2022-12-18T19:22:22.936Z,15.63
2022-12-18T19:23:44.277Z,14.57
2022-12-18T19:25:06.744Z,15.56
2022-12-18T19:26:29.006Z,16.97
2022-12-18T19:27:50.272Z,16.18
2022-12-18T19:29:11.536Z,15.03
2022-12-18T19:30:37.364Z,18.31
2022-12-18T19:32:00.203Z,17.61
2022-12-18T19:33:41.911Z,16.26
2022-12-18T19:34:44.892Z,13.83
2022-12-18T19:36:17.057Z,14.96
2022-12-18T19:37:41.170Z,18.52
2022-12-18T19:40:22.116Z,17.01
2022-12-18T19:41:44.760Z,18.29
2022-12-18T19:43:06.353Z,17.06
2022-12-18T19:44:27.685Z,16.02
2022-12-18T19:45:54.338Z,16.51
2022-12-18T19:47:15.444Z,15.88
2022-12-18T19:48:36.546Z,16.69
2022-12-18T19:49:57.958Z,16.73
2022-12-18T19:52:33.814Z,13.41